sensor_id;sensor_type;location;lat;lon;timestamp;temperature;humidity
52859;DHT22;38721;53.098;6.596;2023-11-21T00:00:14;9.30;99.90
52859;DHT22;38721;53.098;6.596;2023-11-21T00:02:41;9.20;99.90
52859;DHT22;38721;53.098;6.596;2023-11-21T00:05:08;9.20;99.90
52859;DHT22;38721;53.098;6.596;2023-11-21T00:07:38;9.20;99.90
52859;DHT22;38721;53.098;6.596;2023-11-21T00:10:05;9.10;99.90
52859;DHT22;38721;53.098;6.596;2023-11-21T00:12:32;9.20;99.90
52859;DHT22;38721;53.098;6.596;2023-11-21T00:14:59;9.20;99.90
52859;DHT22;38721;53.098;6.596;2023-11-21T00:17:24;9.20;99.90
52859;DHT22;38721;53.098;6.596;2023-11-21T00:19:50;9.20;99.90
52859;DHT22;38721;53.098;6.596;2023-11-21T00:22:19;9.20;99.90
52859;DHT22;38721;53.098;6.596;2023-11-21T00:24:46;9.30;99.90
52859;DHT22;38721;53.098;6.596;2023-11-21T00:27:12;9.30;99.90
52859;DHT22;38721;53.098;6.596;2023-11-21T00:29:37;9.30;99.90
52859;DHT22;38721;53.098;6.596;2023-11-21T00:32:05;9.10;99.90
52859;DHT22;38721;53.098;6.596;2023-11-21T00:34:31;9.20;99.90
52859;DHT22;38721;53.098;6.596;2023-11-21T00:36:58;9.30;99.90
52859;DHT22;38721;53.098;6.596;2023-11-21T00:39:24;9.30;99.90
52859;DHT22;38721;53.098;6.596;2023-11-21T00:41:51;9.20;99.90
52859;DHT22;38721;53.098;6.596;2023-11-21T00:44:17;9.20;99.90
52859;DHT22;38721;53.098;6.596;2023-11-21T00:46:42;9.20;99.90
52859;DHT22;38721;53.098;6.596;2023-11-21T00:49:11;9.30;99.90
52859;DHT22;38721;53.098;6.596;2023-11-21T00:51:37;9.30;99.90
52859;DHT22;38721;53.098;6.596;2023-11-21T00:54:02;9.30;99.90
52859;DHT22;38721;53.098;6.596;2023-11-21T00:56:28;9.40;99.90
52859;DHT22;38721;53.098;6.596;2023-11-21T00:58:54;9.40;99.90
52859;DHT22;38721;53.098;6.596;2023-11-21T01:01:21;9.40;99.90
52859;DHT22;38721;53.098;6.596;2023-11-21T01:03:50;9.40;99.90
52859;DHT22;38721;53.098;6.596;2023-11-21T01:06:16;9.50;99.90
52859;DHT22;38721;53.098;6.596;2023-11-21T01:08:45;9.40;99.90
52859;DHT22;38721;53.098;6.596;2023-11-21T01:11:11;9.50;99.90
52859;DHT22;38721;53.098;6.596;2023-11-21T01:13:41;9.50;99.90
52859;DHT22;38721;53.098;6.596;2023-11-21T01:16:08;9.40;99.90
52859;DHT22;38721;53.098;6.596;2023-11-21T01:18:35;9.40;99.90
52859;DHT22;38721;53.098;6.596;2023-11-21T01:21:00;9.50;99.90
52859;DHT22;38721;53.098;6.596;2023-11-21T01:23:26;9.40;99.90
52859;DHT22;38721;53.098;6.596;2023-11-21T01:25:53;9.50;99.90
52859;DHT22;38721;53.098;6.596;2023-11-21T01:28:19;9.50;99.90
52859;DHT22;38721;53.098;6.596;2023-11-21T01:30:45;9.50;99.90
52859;DHT22;38721;53.098;6.596;2023-11-21T01:33:11;9.50;99.90
52859;DHT22;38721;53.098;6.596;2023-11-21T01:35:37;9.50;99.90
52859;DHT22;38721;53.098;6.596;2023-11-21T01:38:03;9.50;99.90
52859;DHT22;38721;53.098;6.596;2023-11-21T01:40:29;9.50;99.90
52859;DHT22;38721;53.098;6.596;2023-11-21T01:42:56;9.40;99.90
52859;DHT22;38721;53.098;6.596;2023-11-21T01:45:22;9.50;99.90
52859;DHT22;38721;53.098;6.596;2023-11-21T01:47:50;9.50;99.90
52859;DHT22;38721;53.098;6.596;2023-11-21T01:50:17;9.50;99.90
52859;DHT22;38721;53.098;6.596;2023-11-21T01:52:46;9.50;99.90
52859;DHT22;38721;53.098;6.596;2023-11-21T01:55:15;9.50;99.90
52859;DHT22;38721;53.098;6.596;2023-11-21T01:57:43;9.50;99.90
52859;DHT22;38721;53.098;6.596;2023-11-21T02:00:10;9.50;99.90
52859;DHT22;38721;53.098;6.596;2023-11-21T02:02:48;9.50;99.90
52859;DHT22;38721;53.098;6.596;2023-11-21T02:05:18;9.60;99.90
52859;DHT22;38721;53.098;6.596;2023-11-21T02:07:45;9.60;99.90
52859;DHT22;38721;53.098;6.596;2023-11-21T02:10:14;9.50;99.90
52859;DHT22;38721;53.098;6.596;2023-11-21T02:12:43;9.60;99.90
52859;DHT22;38721;53.098;6.596;2023-11-21T02:15:13;9.60;99.90
52859;DHT22;38721;53.098;6.596;2023-11-21T02:17:52;9.60;99.90
52859;DHT22;38721;53.098;6.596;2023-11-21T02:20:19;9.60;99.90
52859;DHT22;38721;53.098;6.596;2023-11-21T02:22:56;9.70;99.90
52859;DHT22;38721;53.098;6.596;2023-11-21T02:25:26;9.70;99.90
52859;DHT22;38721;53.098;6.596;2023-11-21T02:27:56;9.60;99.90
52859;DHT22;38721;53.098;6.596;2023-11-21T02:30:26;9.70;99.90
52859;DHT22;38721;53.098;6.596;2023-11-21T02:32:53;9.70;99.90
52859;DHT22;38721;53.098;6.596;2023-11-21T02:35:20;9.60;99.90
52859;DHT22;38721;53.098;6.596;2023-11-21T02:37:49;9.60;99.90
52859;DHT22;38721;53.098;6.596;2023-11-21T02:40:15;9.70;99.90
52859;DHT22;38721;53.098;6.596;2023-11-21T02:42:49;9.60;99.90
52859;DHT22;38721;53.098;6.596;2023-11-21T02:45:20;9.60;99.90
52859;DHT22;38721;53.098;6.596;2023-11-21T02:47:49;9.70;99.90
52859;DHT22;38721;53.098;6.596;2023-11-21T02:50:15;9.70;99.90
52859;DHT22;38721;53.098;6.596;2023-11-21T02:52:40;9.70;99.90
52859;DHT22;38721;53.098;6.596;2023-11-21T02:55:06;9.70;99.90
52859;DHT22;38721;53.098;6.596;2023-11-21T02:57:32;9.80;99.90
52859;DHT22;38721;53.098;6.596;2023-11-21T02:59:59;9.80;99.90
52859;DHT22;38721;53.098;6.596;2023-11-21T03:02:25;9.70;99.90
52859;DHT22;38721;53.098;6.596;2023-11-21T03:04:51;9.70;99.90
52859;DHT22;38721;53.098;6.596;2023-11-21T03:07:17;9.80;99.90
52859;DHT22;38721;53.098;6.596;2023-11-21T03:09:47;9.70;99.90
52859;DHT22;38721;53.098;6.596;2023-11-21T03:12:13;9.80;99.90
52859;DHT22;38721;53.098;6.596;2023-11-21T03:14:41;9.60;99.90
52859;DHT22;38721;53.098;6.596;2023-11-21T03:17:07;9.60;99.90
52859;DHT22;38721;53.098;6.596;2023-11-21T03:19:33;9.70;99.90
52859;DHT22;38721;53.098;6.596;2023-11-21T03:21:59;9.60;99.90
52859;DHT22;38721;53.098;6.596;2023-11-21T03:24:25;9.60;99.90
52859;DHT22;38721;53.098;6.596;2023-11-21T03:26:51;9.70;99.90
52859;DHT22;38721;53.098;6.596;2023-11-21T03:29:17;9.60;99.90
52859;DHT22;38721;53.098;6.596;2023-11-21T03:31:43;9.60;99.90
52859;DHT22;38721;53.098;6.596;2023-11-21T03:34:23;9.60;99.90
52859;DHT22;38721;53.098;6.596;2023-11-21T03:36:49;9.70;99.90
52859;DHT22;38721;53.098;6.596;2023-11-21T03:39:14;9.70;99.90
52859;DHT22;38721;53.098;6.596;2023-11-21T03:41:40;9.70;99.90
52859;DHT22;38721;53.098;6.596;2023-11-21T03:44:06;9.70;99.90
52859;DHT22;38721;53.098;6.596;2023-11-21T03:46:31;9.70;99.90
52859;DHT22;38721;53.098;6.596;2023-11-21T03:48:57;9.70;99.90
52859;DHT22;38721;53.098;6.596;2023-11-21T03:51:23;9.70;99.90
52859;DHT22;38721;53.098;6.596;2023-11-21T03:53:48;9.60;99.90
52859;DHT22;38721;53.098;6.596;2023-11-21T03:56:14;9.60;99.90
52859;DHT22;38721;53.098;6.596;2023-11-21T03:58:40;9.60;99.90
52859;DHT22;38721;53.098;6.596;2023-11-21T04:01:06;9.70;99.90
52859;DHT22;38721;53.098;6.596;2023-11-21T04:03:31;9.70;99.90
52859;DHT22;38721;53.098;6.596;2023-11-21T04:05:57;9.60;99.90
52859;DHT22;38721;53.098;6.596;2023-11-21T04:08:23;9.60;99.90
52859;DHT22;38721;53.098;6.596;2023-11-21T04:10:48;9.70;99.90
52859;DHT22;38721;53.098;6.596;2023-11-21T04:13:14;9.70;99.90
52859;DHT22;38721;53.098;6.596;2023-11-21T04:15:40;9.60;99.90
52859;DHT22;38721;53.098;6.596;2023-11-21T04:18:05;9.70;99.90
52859;DHT22;38721;53.098;6.596;2023-11-21T04:20:31;9.70;99.90
52859;DHT22;38721;53.098;6.596;2023-11-21T04:22:57;9.60;99.90
52859;DHT22;38721;53.098;6.596;2023-11-21T04:25:23;9.50;99.90
52859;DHT22;38721;53.098;6.596;2023-11-21T04:27:50;9.60;99.90
52859;DHT22;38721;53.098;6.596;2023-11-21T04:30:16;9.50;99.90
52859;DHT22;38721;53.098;6.596;2023-11-21T04:32:41;9.60;99.90
52859;DHT22;38721;53.098;6.596;2023-11-21T04:35:07;9.70;99.90
52859;DHT22;38721;53.098;6.596;2023-11-21T04:37:36;9.70;99.90
52859;DHT22;38721;53.098;6.596;2023-11-21T04:40:02;9.70;99.90
52859;DHT22;38721;53.098;6.596;2023-11-21T04:42:35;9.60;99.90
52859;DHT22;38721;53.098;6.596;2023-11-21T04:45:05;9.60;99.90
52859;DHT22;38721;53.098;6.596;2023-11-21T04:47:34;9.60;99.90
52859;DHT22;38721;53.098;6.596;2023-11-21T04:49:59;9.70;99.90
52859;DHT22;38721;53.098;6.596;2023-11-21T04:52:25;9.60;99.90
52859;DHT22;38721;53.098;6.596;2023-11-21T04:54:51;9.60;99.90
52859;DHT22;38721;53.098;6.596;2023-11-21T04:57:16;9.60;99.90
52859;DHT22;38721;53.098;6.596;2023-11-21T04:59:44;9.70;99.90
52859;DHT22;38721;53.098;6.596;2023-11-21T05:02:10;9.60;99.90
52859;DHT22;38721;53.098;6.596;2023-11-21T05:04:35;9.60;99.90
52859;DHT22;38721;53.098;6.596;2023-11-21T05:07:01;9.70;99.90
52859;DHT22;38721;53.098;6.596;2023-11-21T05:09:26;9.60;99.90
52859;DHT22;38721;53.098;6.596;2023-11-21T05:11:54;9.60;99.90
52859;DHT22;38721;53.098;6.596;2023-11-21T05:14:19;9.60;99.90
52859;DHT22;38721;53.098;6.596;2023-11-21T05:16:47;9.70;99.90
52859;DHT22;38721;53.098;6.596;2023-11-21T05:19:13;9.70;99.90
52859;DHT22;38721;53.098;6.596;2023-11-21T05:21:39;9.50;99.90
52859;DHT22;38721;53.098;6.596;2023-11-21T05:24:05;9.60;99.90
52859;DHT22;38721;53.098;6.596;2023-11-21T05:26:31;9.60;99.90
52859;DHT22;38721;53.098;6.596;2023-11-21T05:28:56;9.60;99.90
52859;DHT22;38721;53.098;6.596;2023-11-21T05:31:22;9.70;99.90
52859;DHT22;38721;53.098;6.596;2023-11-21T05:33:48;9.60;99.90
52859;DHT22;38721;53.098;6.596;2023-11-21T05:36:13;9.70;99.90
52859;DHT22;38721;53.098;6.596;2023-11-21T05:38:39;9.60;99.90
52859;DHT22;38721;53.098;6.596;2023-11-21T05:41:05;9.60;99.90
52859;DHT22;38721;53.098;6.596;2023-11-21T05:43:30;9.70;99.90
52859;DHT22;38721;53.098;6.596;2023-11-21T05:45:57;9.60;99.90
52859;DHT22;38721;53.098;6.596;2023-11-21T05:48:23;9.70;99.90
52859;DHT22;38721;53.098;6.596;2023-11-21T05:50:49;9.60;99.90
52859;DHT22;38721;53.098;6.596;2023-11-21T05:53:15;9.60;99.90
52859;DHT22;38721;53.098;6.596;2023-11-21T05:55:42;9.60;99.90
52859;DHT22;38721;53.098;6.596;2023-11-21T05:58:08;9.60;99.90
52859;DHT22;38721;53.098;6.596;2023-11-21T06:00:34;9.60;99.90
52859;DHT22;38721;53.098;6.596;2023-11-21T06:03:00;9.60;99.90
52859;DHT22;38721;53.098;6.596;2023-11-21T06:05:26;9.70;99.90
52859;DHT22;38721;53.098;6.596;2023-11-21T06:07:53;9.50;99.90
52859;DHT22;38721;53.098;6.596;2023-11-21T06:10:20;9.60;99.90
52859;DHT22;38721;53.098;6.596;2023-11-21T06:12:47;9.50;99.90
52859;DHT22;38721;53.098;6.596;2023-11-21T06:15:13;9.50;99.90
52859;DHT22;38721;53.098;6.596;2023-11-21T06:17:42;9.70;99.90
52859;DHT22;38721;53.098;6.596;2023-11-21T06:20:10;9.70;99.90
52859;DHT22;38721;53.098;6.596;2023-11-21T06:22:41;9.70;99.90
52859;DHT22;38721;53.098;6.596;2023-11-21T06:25:08;9.60;99.90
52859;DHT22;38721;53.098;6.596;2023-11-21T06:27:39;9.60;99.90
52859;DHT22;38721;53.098;6.596;2023-11-21T06:30:05;9.60;99.90
52859;DHT22;38721;53.098;6.596;2023-11-21T06:32:32;9.60;99.90
52859;DHT22;38721;53.098;6.596;2023-11-21T06:34:58;9.60;99.90
52859;DHT22;38721;53.098;6.596;2023-11-21T06:37:29;9.60;99.90
52859;DHT22;38721;53.098;6.596;2023-11-21T06:40:00;9.50;99.90
52859;DHT22;38721;53.098;6.596;2023-11-21T06:42:26;9.60;99.90
52859;DHT22;38721;53.098;6.596;2023-11-21T06:44:52;9.50;99.90
52859;DHT22;38721;53.098;6.596;2023-11-21T06:47:19;9.60;99.90
52859;DHT22;38721;53.098;6.596;2023-11-21T06:49:51;9.60;99.90
52859;DHT22;38721;53.098;6.596;2023-11-21T06:52:17;9.60;99.90
52859;DHT22;38721;53.098;6.596;2023-11-21T06:54:44;9.60;99.90
52859;DHT22;38721;53.098;6.596;2023-11-21T06:57:11;9.60;99.90
52859;DHT22;38721;53.098;6.596;2023-11-21T06:59:36;9.70;99.90
52859;DHT22;38721;53.098;6.596;2023-11-21T07:02:02;9.70;99.90
52859;DHT22;38721;53.098;6.596;2023-11-21T07:04:28;9.60;99.90
52859;DHT22;38721;53.098;6.596;2023-11-21T07:06:54;9.50;99.90
52859;DHT22;38721;53.098;6.596;2023-11-21T07:09:20;9.60;99.90
52859;DHT22;38721;53.098;6.596;2023-11-21T07:11:49;9.40;99.90
52859;DHT22;38721;53.098;6.596;2023-11-21T07:14:15;9.50;99.90
52859;DHT22;38721;53.098;6.596;2023-11-21T07:16:43;9.50;99.90
52859;DHT22;38721;53.098;6.596;2023-11-21T07:19:09;9.40;99.90
52859;DHT22;38721;53.098;6.596;2023-11-21T07:21:35;9.40;99.90
52859;DHT22;38721;53.098;6.596;2023-11-21T07:24:02;9.40;99.90
52859;DHT22;38721;53.098;6.596;2023-11-21T07:26:28;9.40;99.90
52859;DHT22;38721;53.098;6.596;2023-11-21T07:28:54;9.50;99.90
52859;DHT22;38721;53.098;6.596;2023-11-21T07:31:21;9.40;99.90
52859;DHT22;38721;53.098;6.596;2023-11-21T07:33:48;9.50;99.90
52859;DHT22;38721;53.098;6.596;2023-11-21T07:36:14;9.40;99.90
52859;DHT22;38721;53.098;6.596;2023-11-21T07:38:41;9.40;99.90
52859;DHT22;38721;53.098;6.596;2023-11-21T07:41:07;9.40;99.90
52859;DHT22;38721;53.098;6.596;2023-11-21T07:43:35;9.50;99.90
52859;DHT22;38721;53.098;6.596;2023-11-21T07:46:02;9.50;99.90
52859;DHT22;38721;53.098;6.596;2023-11-21T07:48:31;9.50;99.90
52859;DHT22;38721;53.098;6.596;2023-11-21T07:51:01;9.50;99.90
52859;DHT22;38721;53.098;6.596;2023-11-21T07:53:27;9.40;99.90
52859;DHT22;38721;53.098;6.596;2023-11-21T07:55:56;9.30;99.90
52859;DHT22;38721;53.098;6.596;2023-11-21T07:58:22;9.40;99.90
52859;DHT22;38721;53.098;6.596;2023-11-21T08:00:48;9.40;99.90
52859;DHT22;38721;53.098;6.596;2023-11-21T08:03:14;9.30;99.90
52859;DHT22;38721;53.098;6.596;2023-11-21T08:05:40;9.40;99.90
52859;DHT22;38721;53.098;6.596;2023-11-21T08:08:08;9.40;99.90
52859;DHT22;38721;53.098;6.596;2023-11-21T08:10:34;9.30;99.90
52859;DHT22;38721;53.098;6.596;2023-11-21T08:13:04;9.30;99.90
52859;DHT22;38721;53.098;6.596;2023-11-21T08:15:30;9.20;99.90
52859;DHT22;38721;53.098;6.596;2023-11-21T08:17:58;9.20;99.90
52859;DHT22;38721;53.098;6.596;2023-11-21T08:20:25;9.20;99.90
52859;DHT22;38721;53.098;6.596;2023-11-21T08:22:50;9.10;99.90
52859;DHT22;38721;53.098;6.596;2023-11-21T08:25:18;9.20;99.90
52859;DHT22;38721;53.098;6.596;2023-11-21T08:27:46;9.20;99.90
52859;DHT22;38721;53.098;6.596;2023-11-21T08:30:12;9.10;99.90
52859;DHT22;38721;53.098;6.596;2023-11-21T08:32:39;9.20;99.90
52859;DHT22;38721;53.098;6.596;2023-11-21T08:35:08;9.10;99.90
52859;DHT22;38721;53.098;6.596;2023-11-21T08:37:34;9.00;99.90
52859;DHT22;38721;53.098;6.596;2023-11-21T08:40:03;9.00;99.90
52859;DHT22;38721;53.098;6.596;2023-11-21T08:42:32;9.00;99.90
52859;DHT22;38721;53.098;6.596;2023-11-21T08:44:58;9.00;99.90
52859;DHT22;38721;53.098;6.596;2023-11-21T08:47:24;8.90;99.90
52859;DHT22;38721;53.098;6.596;2023-11-21T08:49:50;9.00;99.90
52859;DHT22;38721;53.098;6.596;2023-11-21T08:52:18;9.00;99.90
52859;DHT22;38721;53.098;6.596;2023-11-21T08:54:51;9.00;99.90
52859;DHT22;38721;53.098;6.596;2023-11-21T08:57:25;8.90;99.90
52859;DHT22;38721;53.098;6.596;2023-11-21T08:59:53;9.00;99.90
52859;DHT22;38721;53.098;6.596;2023-11-21T09:02:26;9.10;99.90
52859;DHT22;38721;53.098;6.596;2023-11-21T09:04:52;9.00;99.90
52859;DHT22;38721;53.098;6.596;2023-11-21T09:07:21;9.00;99.90
52859;DHT22;38721;53.098;6.596;2023-11-21T09:09:47;9.00;99.90
52859;DHT22;38721;53.098;6.596;2023-11-21T09:12:15;8.90;99.90
52859;DHT22;38721;53.098;6.596;2023-11-21T09:14:42;8.90;99.90
52859;DHT22;38721;53.098;6.596;2023-11-21T09:17:09;8.90;99.90
52859;DHT22;38721;53.098;6.596;2023-11-21T09:19:40;8.90;99.90
52859;DHT22;38721;53.098;6.596;2023-11-21T09:22:06;8.80;99.90
52859;DHT22;38721;53.098;6.596;2023-11-21T09:24:32;8.80;99.90
52859;DHT22;38721;53.098;6.596;2023-11-21T09:26:58;8.80;99.90
52859;DHT22;38721;53.098;6.596;2023-11-21T09:29:26;8.80;99.90
52859;DHT22;38721;53.098;6.596;2023-11-21T09:31:51;8.70;99.90
52859;DHT22;38721;53.098;6.596;2023-11-21T09:34:17;8.70;99.90
52859;DHT22;38721;53.098;6.596;2023-11-21T09:36:47;8.70;99.90
52859;DHT22;38721;53.098;6.596;2023-11-21T09:39:13;8.80;99.90
52859;DHT22;38721;53.098;6.596;2023-11-21T09:41:49;8.90;99.90
52859;DHT22;38721;53.098;6.596;2023-11-21T09:44:26;8.80;99.90
52859;DHT22;38721;53.098;6.596;2023-11-21T09:46:59;8.80;99.90
52859;DHT22;38721;53.098;6.596;2023-11-21T09:49:26;9.00;99.90
52859;DHT22;38721;53.098;6.596;2023-11-21T09:51:55;9.00;99.90
52859;DHT22;38721;53.098;6.596;2023-11-21T09:54:24;8.90;99.90
52859;DHT22;38721;53.098;6.596;2023-11-21T09:56:50;8.90;99.90
52859;DHT22;38721;53.098;6.596;2023-11-21T09:59:16;9.00;99.90
52859;DHT22;38721;53.098;6.596;2023-11-21T10:01:42;9.00;99.90
52859;DHT22;38721;53.098;6.596;2023-11-21T10:04:09;9.00;99.90
52859;DHT22;38721;53.098;6.596;2023-11-21T10:06:39;8.90;99.90
52859;DHT22;38721;53.098;6.596;2023-11-21T10:09:10;8.90;99.90
52859;DHT22;38721;53.098;6.596;2023-11-21T10:11:44;9.00;99.90
52859;DHT22;38721;53.098;6.596;2023-11-21T10:14:11;8.90;99.90
52859;DHT22;38721;53.098;6.596;2023-11-21T10:16:39;8.90;99.90
52859;DHT22;38721;53.098;6.596;2023-11-21T10:19:06;8.80;99.90
52859;DHT22;38721;53.098;6.596;2023-11-21T10:21:35;8.70;99.90
52859;DHT22;38721;53.098;6.596;2023-11-21T10:24:00;8.80;99.90
52859;DHT22;38721;53.098;6.596;2023-11-21T10:26:28;8.90;99.90
52859;DHT22;38721;53.098;6.596;2023-11-21T10:29:03;8.90;99.90
52859;DHT22;38721;53.098;6.596;2023-11-21T10:31:32;8.80;99.90
52859;DHT22;38721;53.098;6.596;2023-11-21T10:34:15;9.00;99.90
52859;DHT22;38721;53.098;6.596;2023-11-21T10:36:42;9.00;99.90
52859;DHT22;38721;53.098;6.596;2023-11-21T10:39:08;8.90;99.90
52859;DHT22;38721;53.098;6.596;2023-11-21T10:41:35;9.00;99.90
52859;DHT22;38721;53.098;6.596;2023-11-21T10:44:02;9.00;99.90
52859;DHT22;38721;53.098;6.596;2023-11-21T10:46:32;9.00;99.90
52859;DHT22;38721;53.098;6.596;2023-11-21T10:48:58;9.00;99.90
52859;DHT22;38721;53.098;6.596;2023-11-21T10:51:23;9.10;99.90
52859;DHT22;38721;53.098;6.596;2023-11-21T10:53:53;9.30;99.90
52859;DHT22;38721;53.098;6.596;2023-11-21T10:56:23;9.40;99.90
52859;DHT22;38721;53.098;6.596;2023-11-21T10:58:50;9.30;99.90
52859;DHT22;38721;53.098;6.596;2023-11-21T11:01:18;9.30;99.90
52859;DHT22;38721;53.098;6.596;2023-11-21T11:03:47;9.50;99.90
52859;DHT22;38721;53.098;6.596;2023-11-21T11:06:14;9.50;99.90
52859;DHT22;38721;53.098;6.596;2023-11-21T11:08:40;9.30;99.90
52859;DHT22;38721;53.098;6.596;2023-11-21T11:11:07;9.30;99.90
52859;DHT22;38721;53.098;6.596;2023-11-21T11:13:33;9.30;99.90
52859;DHT22;38721;53.098;6.596;2023-11-21T11:16:00;9.30;99.90
52859;DHT22;38721;53.098;6.596;2023-11-21T11:18:32;9.20;99.90
52859;DHT22;38721;53.098;6.596;2023-11-21T11:21:23;9.30;99.90
52859;DHT22;38721;53.098;6.596;2023-11-21T11:23:58;9.30;99.90
52859;DHT22;38721;53.098;6.596;2023-11-21T11:27:01;9.40;99.90
52859;DHT22;38721;53.098;6.596;2023-11-21T11:32:13;9.10;99.90
52859;DHT22;38721;53.098;6.596;2023-11-21T11:34:46;9.10;99.90
52859;DHT22;38721;53.098;6.596;2023-11-21T11:37:12;9.20;99.90
52859;DHT22;38721;53.098;6.596;2023-11-21T11:39:41;9.10;99.90
52859;DHT22;38721;53.098;6.596;2023-11-21T11:42:14;9.10;99.90
52859;DHT22;38721;53.098;6.596;2023-11-21T11:47:30;9.30;99.90
52859;DHT22;38721;53.098;6.596;2023-11-21T11:50:10;9.40;99.90
52859;DHT22;38721;53.098;6.596;2023-11-21T11:52:52;9.60;99.90
52859;DHT22;38721;53.098;6.596;2023-11-21T11:55:21;9.60;99.90
52859;DHT22;38721;53.098;6.596;2023-11-21T11:57:49;9.40;99.90
52859;DHT22;38721;53.098;6.596;2023-11-21T12:00:22;9.50;99.90
52859;DHT22;38721;53.098;6.596;2023-11-21T12:03:16;9.30;99.90
52859;DHT22;38721;53.098;6.596;2023-11-21T12:05:42;9.30;99.90
52859;DHT22;38721;53.098;6.596;2023-11-21T12:08:11;9.20;99.90
52859;DHT22;38721;53.098;6.596;2023-11-21T12:10:38;9.20;99.90
52859;DHT22;38721;53.098;6.596;2023-11-21T12:13:09;9.30;99.90
52859;DHT22;38721;53.098;6.596;2023-11-21T12:15:39;9.30;99.90
52859;DHT22;38721;53.098;6.596;2023-11-21T12:18:06;9.30;99.90
52859;DHT22;38721;53.098;6.596;2023-11-21T12:20:32;9.30;99.90
52859;DHT22;38721;53.098;6.596;2023-11-21T12:22:59;9.40;99.90
52859;DHT22;38721;53.098;6.596;2023-11-21T12:25:26;9.50;99.90
52859;DHT22;38721;53.098;6.596;2023-11-21T12:27:55;9.50;99.90
52859;DHT22;38721;53.098;6.596;2023-11-21T12:30:23;9.30;99.90
52859;DHT22;38721;53.098;6.596;2023-11-21T12:32:53;9.40;99.90
52859;DHT22;38721;53.098;6.596;2023-11-21T12:35:22;9.30;99.90
52859;DHT22;38721;53.098;6.596;2023-11-21T12:37:49;9.10;99.90
52859;DHT22;38721;53.098;6.596;2023-11-21T12:40:16;9.10;99.90
52859;DHT22;38721;53.098;6.596;2023-11-21T12:42:48;9.00;99.90
52859;DHT22;38721;53.098;6.596;2023-11-21T12:47:55;9.30;99.90
52859;DHT22;38721;53.098;6.596;2023-11-21T12:50:23;9.20;99.90
52859;DHT22;38721;53.098;6.596;2023-11-21T12:52:52;9.50;99.90
52859;DHT22;38721;53.098;6.596;2023-11-21T12:55:22;9.40;99.90
52859;DHT22;38721;53.098;6.596;2023-11-21T12:57:50;9.50;99.90
52859;DHT22;38721;53.098;6.596;2023-11-21T13:00:18;9.50;99.90
52859;DHT22;38721;53.098;6.596;2023-11-21T13:02:54;9.20;99.90
52859;DHT22;38721;53.098;6.596;2023-11-21T13:05:33;9.20;99.90
52859;DHT22;38721;53.098;6.596;2023-11-21T13:08:02;9.20;99.90
52859;DHT22;38721;53.098;6.596;2023-11-21T13:10:31;9.20;99.90
52859;DHT22;38721;53.098;6.596;2023-11-21T13:13:01;9.10;99.90
52859;DHT22;38721;53.098;6.596;2023-11-21T13:15:31;9.20;99.90
52859;DHT22;38721;53.098;6.596;2023-11-21T13:17:58;9.40;99.90
52859;DHT22;38721;53.098;6.596;2023-11-21T13:20:25;9.40;99.90
52859;DHT22;38721;53.098;6.596;2023-11-21T13:22:55;9.60;99.90
52859;DHT22;38721;53.098;6.596;2023-11-21T13:25:29;9.80;99.90
52859;DHT22;38721;53.098;6.596;2023-11-21T13:27:57;10.00;99.90
52859;DHT22;38721;53.098;6.596;2023-11-21T13:30:24;10.30;99.90
52859;DHT22;38721;53.098;6.596;2023-11-21T13:32:56;10.20;99.90
52859;DHT22;38721;53.098;6.596;2023-11-21T13:35:31;10.20;99.90
52859;DHT22;38721;53.098;6.596;2023-11-21T13:38:08;10.20;99.90
52859;DHT22;38721;53.098;6.596;2023-11-21T13:40:35;10.00;99.90
52859;DHT22;38721;53.098;6.596;2023-11-21T13:43:19;10.10;99.90
52859;DHT22;38721;53.098;6.596;2023-11-21T13:45:47;9.90;99.90
52859;DHT22;38721;53.098;6.596;2023-11-21T13:48:13;9.80;99.90
52859;DHT22;38721;53.098;6.596;2023-11-21T13:50:40;9.60;99.90
52859;DHT22;38721;53.098;6.596;2023-11-21T13:53:14;9.50;99.90
52859;DHT22;38721;53.098;6.596;2023-11-21T13:55:49;9.40;99.90
52859;DHT22;38721;53.098;6.596;2023-11-21T13:58:20;9.30;99.90
52859;DHT22;38721;53.098;6.596;2023-11-21T14:00:58;9.30;99.90
52859;DHT22;38721;53.098;6.596;2023-11-21T14:03:24;9.20;99.90
52859;DHT22;38721;53.098;6.596;2023-11-21T14:05:58;9.10;99.90
52859;DHT22;38721;53.098;6.596;2023-11-21T14:08:26;9.10;99.90
52859;DHT22;38721;53.098;6.596;2023-11-21T14:10:57;8.90;99.90
52859;DHT22;38721;53.098;6.596;2023-11-21T14:13:28;8.80;99.90
52859;DHT22;38721;53.098;6.596;2023-11-21T14:15:53;8.80;99.90
52859;DHT22;38721;53.098;6.596;2023-11-21T14:18:28;8.70;99.90
52859;DHT22;38721;53.098;6.596;2023-11-21T14:21:04;8.60;99.90
52859;DHT22;38721;53.098;6.596;2023-11-21T14:23:31;8.60;99.90
52859;DHT22;38721;53.098;6.596;2023-11-21T14:25:58;8.50;99.90
52859;DHT22;38721;53.098;6.596;2023-11-21T14:28:29;8.50;99.90
52859;DHT22;38721;53.098;6.596;2023-11-21T14:30:55;8.40;99.90
52859;DHT22;38721;53.098;6.596;2023-11-21T14:33:21;8.30;99.90
52859;DHT22;38721;53.098;6.596;2023-11-21T14:35:48;8.40;99.90
52859;DHT22;38721;53.098;6.596;2023-11-21T14:38:14;8.30;99.90
52859;DHT22;38721;53.098;6.596;2023-11-21T14:40:40;8.30;99.90
52859;DHT22;38721;53.098;6.596;2023-11-21T14:43:06;8.20;99.90
52859;DHT22;38721;53.098;6.596;2023-11-21T14:45:33;8.30;99.90
52859;DHT22;38721;53.098;6.596;2023-11-21T14:47:59;8.30;99.90
52859;DHT22;38721;53.098;6.596;2023-11-21T14:50:35;8.40;99.90
52859;DHT22;38721;53.098;6.596;2023-11-21T14:53:10;8.30;99.90
52859;DHT22;38721;53.098;6.596;2023-11-21T14:55:38;8.40;99.90
52859;DHT22;38721;53.098;6.596;2023-11-21T14:58:10;8.40;99.90
52859;DHT22;38721;53.098;6.596;2023-11-21T15:00:41;8.20;99.90
52859;DHT22;38721;53.098;6.596;2023-11-21T15:03:10;8.20;99.90
52859;DHT22;38721;53.098;6.596;2023-11-21T15:05:43;8.20;99.90
52859;DHT22;38721;53.098;6.596;2023-11-21T15:08:09;8.20;99.90
52859;DHT22;38721;53.098;6.596;2023-11-21T15:10:52;8.10;99.90
52859;DHT22;38721;53.098;6.596;2023-11-21T15:13:21;8.10;99.90
52859;DHT22;38721;53.098;6.596;2023-11-21T15:15:53;8.10;99.90
52859;DHT22;38721;53.098;6.596;2023-11-21T15:18:21;8.10;99.90
52859;DHT22;38721;53.098;6.596;2023-11-21T15:20:47;8.00;99.90
52859;DHT22;38721;53.098;6.596;2023-11-21T15:23:13;7.90;99.90
52859;DHT22;38721;53.098;6.596;2023-11-21T15:25:39;7.90;99.90
52859;DHT22;38721;53.098;6.596;2023-11-21T15:28:05;7.90;99.90
52859;DHT22;38721;53.098;6.596;2023-11-21T15:30:31;7.90;99.90
52859;DHT22;38721;53.098;6.596;2023-11-21T15:32:58;7.90;99.90
52859;DHT22;38721;53.098;6.596;2023-11-21T15:35:24;7.90;99.90
52859;DHT22;38721;53.098;6.596;2023-11-21T15:37:52;7.90;99.90
52859;DHT22;38721;53.098;6.596;2023-11-21T15:40:17;7.90;99.90
52859;DHT22;38721;53.098;6.596;2023-11-21T15:42:43;7.80;99.90
52859;DHT22;38721;53.098;6.596;2023-11-21T15:45:10;7.70;99.90
52859;DHT22;38721;53.098;6.596;2023-11-21T15:47:36;7.70;99.90
52859;DHT22;38721;53.098;6.596;2023-11-21T15:50:02;7.70;99.90
52859;DHT22;38721;53.098;6.596;2023-11-21T15:52:29;7.70;99.90
52859;DHT22;38721;53.098;6.596;2023-11-21T15:54:55;7.70;99.90
52859;DHT22;38721;53.098;6.596;2023-11-21T15:57:21;7.60;99.90